sensor_id;sensor_type;location;lat;lon;timestamp;pressure;altitude;pressure_sealevel;temperature
73937;BMP180;59249;59.736;30.568;2022-10-03T00:01:45;100485.00;;;5.40
73937;BMP180;59249;59.736;30.568;2022-10-03T00:04:41;100486.00;;;5.40
73937;BMP180;59249;59.736;30.568;2022-10-03T00:07:33;100483.00;;;5.40
73937;BMP180;59249;59.736;30.568;2022-10-03T00:10:29;100483.00;;;5.40
73937;BMP180;59249;59.736;30.568;2022-10-03T00:13:13;100479.00;;;5.40
73937;BMP180;59249;59.736;30.568;2022-10-03T00:16:03;100481.00;;;5.50
73937;BMP180;59249;59.736;30.568;2022-10-03T00:18:47;100477.00;;;5.50
73937;BMP180;59249;59.736;30.568;2022-10-03T00:21:35;100477.00;;;5.50
73937;BMP180;59249;59.736;30.568;2022-10-03T00:24:23;100485.00;;;5.40
73937;BMP180;59249;59.736;30.568;2022-10-03T00:27:04;100478.00;;;5.40
73937;BMP180;59249;59.736;30.568;2022-10-03T00:33:08;100479.00;;;5.50
73937;BMP180;59249;59.736;30.568;2022-10-03T00:35:59;100472.00;;;5.40
73937;BMP180;59249;59.736;30.568;2022-10-03T00:38:52;100474.00;;;5.40
73937;BMP180;59249;59.736;30.568;2022-10-03T00:42:00;100470.00;;;5.40
73937;BMP180;59249;59.736;30.568;2022-10-03T00:51:56;100469.00;;;5.60
73937;BMP180;59249;59.736;30.568;2022-10-03T00:54:44;100462.00;;;5.60
73937;BMP180;59249;59.736;30.568;2022-10-03T00:57:39;100462.00;;;5.70
73937;BMP180;59249;59.736;30.568;2022-10-03T01:00:18;100460.00;;;5.60
73937;BMP180;59249;59.736;30.568;2022-10-03T01:03:10;100456.00;;;5.70
73937;BMP180;59249;59.736;30.568;2022-10-03T01:05:57;100455.00;;;5.70
73937;BMP180;59249;59.736;30.568;2022-10-03T01:09:07;100446.00;;;5.80
73937;BMP180;59249;59.736;30.568;2022-10-03T01:11:55;100441.00;;;5.80
73937;BMP180;59249;59.736;30.568;2022-10-03T01:14:50;100435.00;;;5.80
73937;BMP180;59249;59.736;30.568;2022-10-03T01:17:35;100422.00;;;5.80
73937;BMP180;59249;59.736;30.568;2022-10-03T01:20:19;100424.00;;;5.90
73937;BMP180;59249;59.736;30.568;2022-10-03T01:26:25;100432.00;;;5.90
73937;BMP180;59249;59.736;30.568;2022-10-03T01:29:11;100440.00;;;5.90
73937;BMP180;59249;59.736;30.568;2022-10-03T01:32:03;100450.00;;;5.90
73937;BMP180;59249;59.736;30.568;2022-10-03T01:34:39;100431.00;;;6.00
73937;BMP180;59249;59.736;30.568;2022-10-03T01:37:17;100434.00;;;6.00
73937;BMP180;59249;59.736;30.568;2022-10-03T01:39:54;100430.00;;;6.00
73937;BMP180;59249;59.736;30.568;2022-10-03T01:42:36;100440.00;;;6.20
73937;BMP180;59249;59.736;30.568;2022-10-03T01:45:24;100434.00;;;6.20
73937;BMP180;59249;59.736;30.568;2022-10-03T01:48:00;100433.00;;;6.30
73937;BMP180;59249;59.736;30.568;2022-10-03T01:50:35;100435.00;;;6.30
73937;BMP180;59249;59.736;30.568;2022-10-03T01:53:18;100434.00;;;6.30
73937;BMP180;59249;59.736;30.568;2022-10-03T01:55:58;100432.00;;;6.40
73937;BMP180;59249;59.736;30.568;2022-10-03T01:58:44;100438.00;;;6.40
73937;BMP180;59249;59.736;30.568;2022-10-03T02:01:33;100448.00;;;6.30
73937;BMP180;59249;59.736;30.568;2022-10-03T02:04:16;100442.00;;;6.30
73937;BMP180;59249;59.736;30.568;2022-10-03T02:07:03;100446.00;;;6.40
73937;BMP180;59249;59.736;30.568;2022-10-03T02:09:49;100442.00;;;6.30
73937;BMP180;59249;59.736;30.568;2022-10-03T02:12:35;100441.00;;;6.40
73937;BMP180;59249;59.736;30.568;2022-10-03T02:15:14;100436.00;;;6.50
73937;BMP180;59249;59.736;30.568;2022-10-03T02:17:53;100440.00;;;6.50
73937;BMP180;59249;59.736;30.568;2022-10-03T02:20:32;100437.00;;;6.40
73937;BMP180;59249;59.736;30.568;2022-10-03T02:23:23;100440.00;;;6.50
73937;BMP180;59249;59.736;30.568;2022-10-03T02:26:19;100445.00;;;6.50
73937;BMP180;59249;59.736;30.568;2022-10-03T02:29:30;100448.00;;;6.40
73937;BMP180;59249;59.736;30.568;2022-10-03T02:32:45;100450.00;;;6.50
73937;BMP180;59249;59.736;30.568;2022-10-03T02:36:03;100443.00;;;6.50
73937;BMP180;59249;59.736;30.568;2022-10-03T02:42:35;100448.00;;;6.50
73937;BMP180;59249;59.736;30.568;2022-10-03T02:49:09;100440.00;;;6.50
73937;BMP180;59249;59.736;30.568;2022-10-03T02:52:21;100432.00;;;6.50
73937;BMP180;59249;59.736;30.568;2022-10-03T03:02:37;100435.00;;;6.60
73937;BMP180;59249;59.736;30.568;2022-10-03T03:09:30;100439.00;;;6.60
73937;BMP180;59249;59.736;30.568;2022-10-03T03:12:54;100434.00;;;6.70
73937;BMP180;59249;59.736;30.568;2022-10-03T03:16:22;100430.00;;;6.80
73937;BMP180;59249;59.736;30.568;2022-10-03T03:19:31;100430.00;;;6.80
73937;BMP180;59249;59.736;30.568;2022-10-03T03:22:23;100433.00;;;6.70
73937;BMP180;59249;59.736;30.568;2022-10-03T03:25:25;100426.00;;;6.80
73937;BMP180;59249;59.736;30.568;2022-10-03T03:28:17;100418.00;;;6.80
73937;BMP180;59249;59.736;30.568;2022-10-03T03:31:00;100425.00;;;6.80
73937;BMP180;59249;59.736;30.568;2022-10-03T03:33:44;100424.00;;;6.80
73937;BMP180;59249;59.736;30.568;2022-10-03T03:36:28;100419.00;;;6.90
73937;BMP180;59249;59.736;30.568;2022-10-03T03:42:36;100412.00;;;7.00
73937;BMP180;59249;59.736;30.568;2022-10-03T03:45:32;100405.00;;;7.00
73937;BMP180;59249;59.736;30.568;2022-10-03T03:48:19;100405.00;;;7.00
73937;BMP180;59249;59.736;30.568;2022-10-03T03:51:09;100402.00;;;7.00
73937;BMP180;59249;59.736;30.568;2022-10-03T03:54:02;100400.00;;;7.20
73937;BMP180;59249;59.736;30.568;2022-10-03T03:57:10;100390.00;;;7.00
73937;BMP180;59249;59.736;30.568;2022-10-03T04:00:15;100385.00;;;7.20
73937;BMP180;59249;59.736;30.568;2022-10-03T04:03:07;100381.00;;;7.20
73937;BMP180;59249;59.736;30.568;2022-10-03T04:06:01;100371.00;;;7.20
73937;BMP180;59249;59.736;30.568;2022-10-03T04:08:57;100362.00;;;7.20
73937;BMP180;59249;59.736;30.568;2022-10-03T04:11:43;100355.00;;;7.20
73937;BMP180;59249;59.736;30.568;2022-10-03T04:14:49;100361.00;;;7.30
73937;BMP180;59249;59.736;30.568;2022-10-03T04:17:45;100349.00;;;7.30
73937;BMP180;59249;59.736;30.568;2022-10-03T04:20:59;100336.00;;;7.40
73937;BMP180;59249;59.736;30.568;2022-10-03T04:23:55;100326.00;;;7.40
73937;BMP180;59249;59.736;30.568;2022-10-03T04:26:45;100323.00;;;7.40
73937;BMP180;59249;59.736;30.568;2022-10-03T04:29:42;100337.00;;;7.40
73937;BMP180;59249;59.736;30.568;2022-10-03T04:32:47;100332.00;;;7.40
73937;BMP180;59249;59.736;30.568;2022-10-03T04:35:48;100323.00;;;7.40
73937;BMP180;59249;59.736;30.568;2022-10-03T04:38:40;100326.00;;;7.40
73937;BMP180;59249;59.736;30.568;2022-10-03T04:41:23;100318.00;;;7.40
73937;BMP180;59249;59.736;30.568;2022-10-03T04:44:02;100330.00;;;7.50
73937;BMP180;59249;59.736;30.568;2022-10-03T04:46:42;100322.00;;;7.50
73937;BMP180;59249;59.736;30.568;2022-10-03T04:49:24;100315.00;;;7.50
73937;BMP180;59249;59.736;30.568;2022-10-03T04:52:06;100323.00;;;7.50
73937;BMP180;59249;59.736;30.568;2022-10-03T04:54:53;100318.00;;;7.60
73937;BMP180;59249;59.736;30.568;2022-10-03T04:57:34;100309.00;;;7.70
73937;BMP180;59249;59.736;30.568;2022-10-03T05:00:20;100303.00;;;7.70
73937;BMP180;59249;59.736;30.568;2022-10-03T05:02:57;100311.00;;;7.70
73937;BMP180;59249;59.736;30.568;2022-10-03T05:05:55;100306.00;;;7.60
73937;BMP180;59249;59.736;30.568;2022-10-03T05:08:36;100302.00;;;7.70
73937;BMP180;59249;59.736;30.568;2022-10-03T05:11:18;100298.00;;;7.90
73937;BMP180;59249;59.736;30.568;2022-10-03T05:14:02;100295.00;;;7.90
73937;BMP180;59249;59.736;30.568;2022-10-03T05:16:40;100296.00;;;7.70
73937;BMP180;59249;59.736;30.568;2022-10-03T05:19:30;100301.00;;;7.80
73937;BMP180;59249;59.736;30.568;2022-10-03T05:22:18;100288.00;;;8.00
73937;BMP180;59249;59.736;30.568;2022-10-03T05:24:57;100288.00;;;7.90
73937;BMP180;59249;59.736;30.568;2022-10-03T05:27:43;100279.00;;;7.90
73937;BMP180;59249;59.736;30.568;2022-10-03T05:30:28;100283.00;;;8.00
73937;BMP180;59249;59.736;30.568;2022-10-03T05:33:16;100279.00;;;7.90
73937;BMP180;59249;59.736;30.568;2022-10-03T05:36:05;100278.00;;;7.90
73937;BMP180;59249;59.736;30.568;2022-10-03T05:45:29;100267.00;;;7.90
73937;BMP180;59249;59.736;30.568;2022-10-03T05:48:12;100271.00;;;7.90
73937;BMP180;59249;59.736;30.568;2022-10-03T05:51:14;100254.00;;;7.90
73937;BMP180;59249;59.736;30.568;2022-10-03T05:54:33;100260.00;;;7.90
73937;BMP180;59249;59.736;30.568;2022-10-03T05:57:57;100263.00;;;7.90
73937;BMP180;59249;59.736;30.568;2022-10-03T06:01:08;100266.00;;;7.80
73937;BMP180;59249;59.736;30.568;2022-10-03T06:04:20;100268.00;;;7.80
73937;BMP180;59249;59.736;30.568;2022-10-03T06:07:13;100264.00;;;7.90
73937;BMP180;59249;59.736;30.568;2022-10-03T06:13:14;100255.00;;;8.00
73937;BMP180;59249;59.736;30.568;2022-10-03T06:16:04;100257.00;;;8.10
73937;BMP180;59249;59.736;30.568;2022-10-03T06:19:08;100253.00;;;8.10
73937;BMP180;59249;59.736;30.568;2022-10-03T06:22:27;100262.00;;;8.20
73937;BMP180;59249;59.736;30.568;2022-10-03T06:35:58;100246.00;;;8.00
73937;BMP180;59249;59.736;30.568;2022-10-03T06:39:31;100245.00;;;8.20
73937;BMP180;59249;59.736;30.568;2022-10-03T06:50:12;100247.00;;;8.00
73937;BMP180;59249;59.736;30.568;2022-10-03T06:52:59;100241.00;;;8.00
73937;BMP180;59249;59.736;30.568;2022-10-03T06:56:07;100250.00;;;8.00
73937;BMP180;59249;59.736;30.568;2022-10-03T07:02:55;100256.00;;;8.20
73937;BMP180;59249;59.736;30.568;2022-10-03T07:06:21;100232.00;;;8.00
73937;BMP180;59249;59.736;30.568;2022-10-03T07:09:36;100240.00;;;8.00
73937;BMP180;59249;59.736;30.568;2022-10-03T07:12:44;100203.00;;;8.50
73937;BMP180;59249;59.736;30.568;2022-10-03T07:22:27;100215.00;;;8.00
73937;BMP180;59249;59.736;30.568;2022-10-03T07:25:30;100225.00;;;8.30
73937;BMP180;59249;59.736;30.568;2022-10-03T07:31:45;100213.00;;;8.30
73937;BMP180;59249;59.736;30.568;2022-10-03T07:35:02;100226.00;;;8.10
73937;BMP180;59249;59.736;30.568;2022-10-03T07:38:45;100209.00;;;8.30
73937;BMP180;59249;59.736;30.568;2022-10-03T07:41:48;100207.00;;;8.40
73937;BMP180;59249;59.736;30.568;2022-10-03T07:51:22;100211.00;;;8.40
73937;BMP180;59249;59.736;30.568;2022-10-03T07:54:37;100204.00;;;8.60
73937;BMP180;59249;59.736;30.568;2022-10-03T07:57:43;100212.00;;;8.60
73937;BMP180;59249;59.736;30.568;2022-10-03T08:00:43;100209.00;;;8.00
73937;BMP180;59249;59.736;30.568;2022-10-03T08:07:04;100204.00;;;8.10
73937;BMP180;59249;59.736;30.568;2022-10-03T08:09:56;100209.00;;;8.40
73937;BMP180;59249;59.736;30.568;2022-10-03T08:12:55;100196.00;;;8.20
73937;BMP180;59249;59.736;30.568;2022-10-03T08:15:49;100190.00;;;8.50
73937;BMP180;59249;59.736;30.568;2022-10-03T08:18:52;100188.00;;;8.40
73937;BMP180;59249;59.736;30.568;2022-10-03T08:21:57;100193.00;;;8.50
73937;BMP180;59249;59.736;30.568;2022-10-03T08:28:05;100204.00;;;8.70
73937;BMP180;59249;59.736;30.568;2022-10-03T08:31:18;100176.00;;;8.10
73937;BMP180;59249;59.736;30.568;2022-10-03T08:34:21;100178.00;;;8.10
73937;BMP180;59249;59.736;30.568;2022-10-03T08:44:38;100141.00;;;8.10
73937;BMP180;59249;59.736;30.568;2022-10-03T08:54:43;100126.00;;;8.00
73937;BMP180;59249;59.736;30.568;2022-10-03T09:00:52;100103.00;;;8.40
73937;BMP180;59249;59.736;30.568;2022-10-03T09:04:02;100112.00;;;8.30
73937;BMP180;59249;59.736;30.568;2022-10-03T09:07:29;100103.00;;;8.40
73937;BMP180;59249;59.736;30.568;2022-10-03T09:10:35;100100.00;;;8.40
73937;BMP180;59249;59.736;30.568;2022-10-03T09:13:44;100085.00;;;8.30
73937;BMP180;59249;59.736;30.568;2022-10-03T09:17:05;100081.00;;;8.40
73937;BMP180;59249;59.736;30.568;2022-10-03T09:20:08;100086.00;;;8.20
73937;BMP180;59249;59.736;30.568;2022-10-03T09:27:00;100078.00;;;8.10
73937;BMP180;59249;59.736;30.568;2022-10-03T09:30:19;100053.00;;;8.20
73937;BMP180;59249;59.736;30.568;2022-10-03T09:33:25;100065.00;;;8.20
73937;BMP180;59249;59.736;30.568;2022-10-03T09:36:40;100056.00;;;8.20
73937;BMP180;59249;59.736;30.568;2022-10-03T09:39:46;100053.00;;;8.20
73937;BMP180;59249;59.736;30.568;2022-10-03T09:53:33;100047.00;;;8.20
73937;BMP180;59249;59.736;30.568;2022-10-03T10:00:20;100048.00;;;8.30
73937;BMP180;59249;59.736;30.568;2022-10-03T10:03:13;100029.00;;;8.00
73937;BMP180;59249;59.736;30.568;2022-10-03T10:06:27;100016.00;;;8.10
73937;BMP180;59249;59.736;30.568;2022-10-03T10:12:50;100006.00;;;8.10
73937;BMP180;59249;59.736;30.568;2022-10-03T10:16:16;100016.00;;;7.50
73937;BMP180;59249;59.736;30.568;2022-10-03T10:19:34;100013.00;;;7.70
73937;BMP180;59249;59.736;30.568;2022-10-03T10:22:50;100007.00;;;8.00
73937;BMP180;59249;59.736;30.568;2022-10-03T10:29:16;99993.00;;;7.70
73937;BMP180;59249;59.736;30.568;2022-10-03T10:46:32;99965.00;;;7.60
73937;BMP180;59249;59.736;30.568;2022-10-03T10:49:54;99953.00;;;7.80
73937;BMP180;59249;59.736;30.568;2022-10-03T11:06:56;99906.00;;;7.60
73937;BMP180;59249;59.736;30.568;2022-10-03T11:09:51;99909.00;;;7.80
73937;BMP180;59249;59.736;30.568;2022-10-03T11:16:49;99897.00;;;7.80
73937;BMP180;59249;59.736;30.568;2022-10-03T11:30:28;99878.00;;;7.70
73937;BMP180;59249;59.736;30.568;2022-10-03T11:37:23;99878.00;;;7.60
73937;BMP180;59249;59.736;30.568;2022-10-03T11:40:10;99869.00;;;7.60
73937;BMP180;59249;59.736;30.568;2022-10-03T11:42:54;99888.00;;;7.70
73937;BMP180;59249;59.736;30.568;2022-10-03T11:45:37;99856.00;;;7.50
73937;BMP180;59249;59.736;30.568;2022-10-03T11:48:26;99857.00;;;7.50
73937;BMP180;59249;59.736;30.568;2022-10-03T11:51:09;99839.00;;;7.50
73937;BMP180;59249;59.736;30.568;2022-10-03T11:53:44;99854.00;;;7.60
73937;BMP180;59249;59.736;30.568;2022-10-03T11:56:39;99843.00;;;7.70
73937;BMP180;59249;59.736;30.568;2022-10-03T11:59:29;99853.00;;;7.70
73937;BMP180;59249;59.736;30.568;2022-10-03T12:02:26;99847.00;;;7.60
73937;BMP180;59249;59.736;30.568;2022-10-03T12:05:20;99845.00;;;7.50
73937;BMP180;59249;59.736;30.568;2022-10-03T12:08:09;99839.00;;;7.40
73937;BMP180;59249;59.736;30.568;2022-10-03T12:11:08;99826.00;;;7.80
73937;BMP180;59249;59.736;30.568;2022-10-03T12:13:53;99835.00;;;7.70
73937;BMP180;59249;59.736;30.568;2022-10-03T12:16:49;99822.00;;;7.70
73937;BMP180;59249;59.736;30.568;2022-10-03T12:19:31;99821.00;;;7.60
73937;BMP180;59249;59.736;30.568;2022-10-03T12:22:12;99809.00;;;7.60
73937;BMP180;59249;59.736;30.568;2022-10-03T12:24:51;99818.00;;;7.70
73937;BMP180;59249;59.736;30.568;2022-10-03T12:27:39;99842.00;;;7.70
73937;BMP180;59249;59.736;30.568;2022-10-03T12:30:18;99801.00;;;7.70
73937;BMP180;59249;59.736;30.568;2022-10-03T12:33:02;99817.00;;;7.40
73937;BMP180;59249;59.736;30.568;2022-10-03T12:35:50;99802.00;;;7.50
73937;BMP180;59249;59.736;30.568;2022-10-03T12:38:43;99798.00;;;7.50
73937;BMP180;59249;59.736;30.568;2022-10-03T12:41:28;99809.00;;;7.70
73937;BMP180;59249;59.736;30.568;2022-10-03T12:44:24;99795.00;;;7.70
73937;BMP180;59249;59.736;30.568;2022-10-03T12:47:12;99803.00;;;7.50
73937;BMP180;59249;59.736;30.568;2022-10-03T12:50:27;99795.00;;;7.60
73937;BMP180;59249;59.736;30.568;2022-10-03T12:53:30;99795.00;;;7.60
73937;BMP180;59249;59.736;30.568;2022-10-03T12:56:11;99802.00;;;7.50
73937;BMP180;59249;59.736;30.568;2022-10-03T12:58:50;99797.00;;;7.70
73937;BMP180;59249;59.736;30.568;2022-10-03T13:01:41;99780.00;;;7.50
73937;BMP180;59249;59.736;30.568;2022-10-03T13:04:27;99789.00;;;7.70
73937;BMP180;59249;59.736;30.568;2022-10-03T13:07:19;99775.00;;;7.70
73937;BMP180;59249;59.736;30.568;2022-10-03T13:10:12;99765.00;;;7.70
73937;BMP180;59249;59.736;30.568;2022-10-03T13:12:55;99761.00;;;7.40
73937;BMP180;59249;59.736;30.568;2022-10-03T13:15:43;99754.00;;;7.60
73937;BMP180;59249;59.736;30.568;2022-10-03T13:18:32;99759.00;;;7.50
73937;BMP180;59249;59.736;30.568;2022-10-03T13:21:17;99753.00;;;7.40
73937;BMP180;59249;59.736;30.568;2022-10-03T13:24:22;99750.00;;;7.50
73937;BMP180;59249;59.736;30.568;2022-10-03T13:30:04;99750.00;;;7.60
73937;BMP180;59249;59.736;30.568;2022-10-03T13:32:43;99761.00;;;7.60
73937;BMP180;59249;59.736;30.568;2022-10-03T13:35:24;99753.00;;;7.60
73937;BMP180;59249;59.736;30.568;2022-10-03T13:38:42;99754.00;;;7.50
73937;BMP180;59249;59.736;30.568;2022-10-03T13:41:28;99713.00;;;7.60
73937;BMP180;59249;59.736;30.568;2022-10-03T13:44:14;99728.00;;;7.50
73937;BMP180;59249;59.736;30.568;2022-10-03T13:46:49;99723.00;;;7.50
73937;BMP180;59249;59.736;30.568;2022-10-03T13:49:24;99703.00;;;7.40
73937;BMP180;59249;59.736;30.568;2022-10-03T13:52:01;99715.00;;;7.60
73937;BMP180;59249;59.736;30.568;2022-10-03T13:55:13;99699.00;;;7.40
73937;BMP180;59249;59.736;30.568;2022-10-03T13:58:02;99699.00;;;7.30
73937;BMP180;59249;59.736;30.568;2022-10-03T14:00:55;99704.00;;;7.40
73937;BMP180;59249;59.736;30.568;2022-10-03T14:03:47;99706.00;;;7.50
73937;BMP180;59249;59.736;30.568;2022-10-03T14:06:31;99696.00;;;7.40
73937;BMP180;59249;59.736;30.568;2022-10-03T14:09:23;99701.00;;;7.30
73937;BMP180;59249;59.736;30.568;2022-10-03T14:12:09;99693.00;;;7.20
73937;BMP180;59249;59.736;30.568;2022-10-03T14:15:25;99689.00;;;7.40
73937;BMP180;59249;59.736;30.568;2022-10-03T14:18:17;99680.00;;;7.20
73937;BMP180;59249;59.736;30.568;2022-10-03T14:21:32;99678.00;;;7.20
73937;BMP180;59249;59.736;30.568;2022-10-03T14:24:31;99695.00;;;7.20
73937;BMP180;59249;59.736;30.568;2022-10-03T14:27:14;99669.00;;;7.40
73937;BMP180;59249;59.736;30.568;2022-10-03T14:30:03;99673.00;;;7.30
73937;BMP180;59249;59.736;30.568;2022-10-03T14:32:47;99659.00;;;7.50
73937;BMP180;59249;59.736;30.568;2022-10-03T14:35:30;99668.00;;;7.10
73937;BMP180;59249;59.736;30.568;2022-10-03T14:38:38;99673.00;;;7.20
73937;BMP180;59249;59.736;30.568;2022-10-03T14:41:44;99680.00;;;7.20
73937;BMP180;59249;59.736;30.568;2022-10-03T14:44:18;99684.00;;;7.20
73937;BMP180;59249;59.736;30.568;2022-10-03T14:46:51;99673.00;;;7.20
73937;BMP180;59249;59.736;30.568;2022-10-03T14:49:28;99658.00;;;7.40
73937;BMP180;59249;59.736;30.568;2022-10-03T14:52:25;99643.00;;;7.40
73937;BMP180;59249;59.736;30.568;2022-10-03T14:55:06;99655.00;;;7.40
73937;BMP180;59249;59.736;30.568;2022-10-03T14:57:43;99661.00;;;7.50
73937;BMP180;59249;59.736;30.568;2022-10-03T15:00:39;99657.00;;;7.40
73937;BMP180;59249;59.736;30.568;2022-10-03T15:03:19;99656.00;;;7.40
73937;BMP180;59249;59.736;30.568;2022-10-03T15:05:57;99654.00;;;7.30
73937;BMP180;59249;59.736;30.568;2022-10-03T15:08:34;99662.00;;;7.20
73937;BMP180;59249;59.736;30.568;2022-10-03T15:11:06;99664.00;;;7.30
73937;BMP180;59249;59.736;30.568;2022-10-03T15:13:39;99666.00;;;7.30
73937;BMP180;59249;59.736;30.568;2022-10-03T15:16:14;99657.00;;;7.30
73937;BMP180;59249;59.736;30.568;2022-10-03T15:18:50;99652.00;;;7.50
73937;BMP180;59249;59.736;30.568;2022-10-03T15:21:23;99682.00;;;7.30
73937;BMP180;59249;59.736;30.568;2022-10-03T15:23:59;99674.00;;;7.50
73937;BMP180;59249;59.736;30.568;2022-10-03T15:26:33;99659.00;;;7.40
73937;BMP180;59249;59.736;30.568;2022-10-03T15:29:06;99678.00;;;7.30
73937;BMP180;59249;59.736;30.568;2022-10-03T15:31:44;99680.00;;;7.50
73937;BMP180;59249;59.736;30.568;2022-10-03T15:34:18;99668.00;;;7.40
73937;BMP180;59249;59.736;30.568;2022-10-03T15:36:53;99654.00;;;7.20
73937;BMP180;59249;59.736;30.568;2022-10-03T15:39:31;99680.00;;;7.60
73937;BMP180;59249;59.736;30.568;2022-10-03T15:42:18;99647.00;;;7.30
73937;BMP180;59249;59.736;30.568;2022-10-03T15:44:51;99636.00;;;7.50
73937;BMP180;59249;59.736;30.568;2022-10-03T15:47:24;99622.00;;;7.20
73937;BMP180;59249;59.736;30.568;2022-10-03T15:49:58;99630.00;;;7.40
73937;BMP180;59249;59.736;30.568;2022-10-03T15:52:34;99643.00;;;7.30
73937;BMP180;59249;59.736;30.568;2022-10-03T15:55:15;99624.00;;;7.30
73937;BMP180;59249;59.736;30.568;2022-10-03T15:57:49;99605.00;;;7.30
73937;BMP180;59249;59.736;30.568;2022-10-03T16:00:24;99620.00;;;7.20
73937;BMP180;59249;59.736;30.568;2022-10-03T16:03:12;99608.00;;;7.30
73937;BMP180;59249;59.736;30.568;2022-10-03T16:05:52;99617.00;;;7.50
73937;BMP180;59249;59.736;30.568;2022-10-03T16:08:29;99606.00;;;7.50
73937;BMP180;59249;59.736;30.568;2022-10-03T16:11:08;99606.00;;;7.30
73937;BMP180;59249;59.736;30.568;2022-10-03T16:13:48;99596.00;;;7.40
73937;BMP180;59249;59.736;30.568;2022-10-03T16:16:35;99588.00;;;7.50
73937;BMP180;59249;59.736;30.568;2022-10-03T16:19:26;99579.00;;;7.40
73937;BMP180;59249;59.736;30.568;2022-10-03T16:22:16;99594.00;;;7.40
73937;BMP180;59249;59.736;30.568;2022-10-03T16:25:00;99581.00;;;7.30
73937;BMP180;59249;59.736;30.568;2022-10-03T16:27:48;99584.00;;;7.20
73937;BMP180;59249;59.736;30.568;2022-10-03T16:30:23;99547.00;;;7.30
73937;BMP180;59249;59.736;30.568;2022-10-03T16:33:02;99532.00;;;7.40
73937;BMP180;59249;59.736;30.568;2022-10-03T16:35:43;99557.00;;;7.40
73937;BMP180;59249;59.736;30.568;2022-10-03T16:38:19;99555.00;;;7.20
73937;BMP180;59249;59.736;30.568;2022-10-03T16:40:58;99546.00;;;7.30
73937;BMP180;59249;59.736;30.568;2022-10-03T16:43:31;99561.00;;;7.40
73937;BMP180;59249;59.736;30.568;2022-10-03T16:46:15;99544.00;;;7.40
73937;BMP180;59249;59.736;30.568;2022-10-03T16:48:46;99544.00;;;7.50
73937;BMP180;59249;59.736;30.568;2022-10-03T16:51:36;99535.00;;;7.30
73937;BMP180;59249;59.736;30.568;2022-10-03T16:54:12;99545.00;;;7.40
73937;BMP180;59249;59.736;30.568;2022-10-03T16:56:44;99542.00;;;7.40
73937;BMP180;59249;59.736;30.568;2022-10-03T16:59:20;99534.00;;;7.40
73937;BMP180;59249;59.736;30.568;2022-10-03T17:01:54;99535.00;;;7.30
73937;BMP180;59249;59.736;30.568;2022-10-03T17:04:28;99521.00;;;7.40
73937;BMP180;59249;59.736;30.568;2022-10-03T17:07:03;99509.00;;;7.40
73937;BMP180;59249;59.736;30.568;2022-10-03T17:09:37;99512.00;;;7.40
73937;BMP180;59249;59.736;30.568;2022-10-03T17:12:15;99512.00;;;7.40
73937;BMP180;59249;59.736;30.568;2022-10-03T17:14:50;99500.00;;;7.50
73937;BMP180;59249;59.736;30.568;2022-10-03T17:17:27;99504.00;;;7.60
73937;BMP180;59249;59.736;30.568;2022-10-03T17:20:06;99502.00;;;7.40
73937;BMP180;59249;59.736;30.568;2022-10-03T17:22:43;99510.00;;;7.50
73937;BMP180;59249;59.736;30.568;2022-10-03T17:25:38;99495.00;;;7.50
73937;BMP180;59249;59.736;30.568;2022-10-03T17:28:28;99494.00;;;7.30
73937;BMP180;59249;59.736;30.568;2022-10-03T17:31:11;99493.00;;;7.60
73937;BMP180;59249;59.736;30.568;2022-10-03T17:34:02;99485.00;;;7.60
73937;BMP180;59249;59.736;30.568;2022-10-03T17:40:39;99474.00;;;7.40
73937;BMP180;59249;59.736;30.568;2022-10-03T17:43:28;99465.00;;;7.40
73937;BMP180;59249;59.736;30.568;2022-10-03T17:46:13;99469.00;;;7.40
73937;BMP180;59249;59.736;30.568;2022-10-03T17:49:00;99465.00;;;7.20
73937;BMP180;59249;59.736;30.568;2022-10-03T17:51:37;99458.00;;;7.40
73937;BMP180;59249;59.736;30.568;2022-10-03T17:54:11;99460.00;;;7.30
73937;BMP180;59249;59.736;30.568;2022-10-03T17:56:44;99467.00;;;7.20
73937;BMP180;59249;59.736;30.568;2022-10-03T17:59:25;99453.00;;;7.20
73937;BMP180;59249;59.736;30.568;2022-10-03T18:02:03;99462.00;;;7.30
73937;BMP180;59249;59.736;30.568;2022-10-03T18:04:44;99460.00;;;7.50
73937;BMP180;59249;59.736;30.568;2022-10-03T18:07:17;99451.00;;;7.40
73937;BMP180;59249;59.736;30.568;2022-10-03T18:09:51;99469.00;;;7.50
73937;BMP180;59249;59.736;30.568;2022-10-03T18:12:31;99470.00;;;7.30
73937;BMP180;59249;59.736;30.568;2022-10-03T18:19:02;99462.00;;;7.40
73937;BMP180;59249;59.736;30.568;2022-10-03T18:21:49;99458.00;;;7.30
73937;BMP180;59249;59.736;30.568;2022-10-03T18:24:43;99456.00;;;7.20
73937;BMP180;59249;59.736;30.568;2022-10-03T18:28:10;99450.00;;;7.40
73937;BMP180;59249;59.736;30.568;2022-10-03T18:30:49;99450.00;;;7.40
73937;BMP180;59249;59.736;30.568;2022-10-03T18:33:22;99456.00;;;7.30
73937;BMP180;59249;59.736;30.568;2022-10-03T18:36:08;99446.00;;;7.30
73937;BMP180;59249;59.736;30.568;2022-10-03T18:38:44;99447.00;;;7.30
73937;BMP180;59249;59.736;30.568;2022-10-03T18:41:16;99444.00;;;7.40
73937;BMP180;59249;59.736;30.568;2022-10-03T18:43:51;99433.00;;;7.60
73937;BMP180;59249;59.736;30.568;2022-10-03T18:46:32;99433.00;;;7.50
73937;BMP180;59249;59.736;30.568;2022-10-03T18:49:14;99433.00;;;7.50
73937;BMP180;59249;59.736;30.568;2022-10-03T18:52:10;99442.00;;;7.50
73937;BMP180;59249;59.736;30.568;2022-10-03T18:54:53;99443.00;;;7.40
73937;BMP180;59249;59.736;30.568;2022-10-03T18:57:34;99439.00;;;7.30
73937;BMP180;59249;59.736;30.568;2022-10-03T19:00:15;99443.00;;;7.50
73937;BMP180;59249;59.736;30.568;2022-10-03T19:02:54;99434.00;;;7.40
73937;BMP180;59249;59.736;30.568;2022-10-03T19:05:32;99438.00;;;7.40
73937;BMP180;59249;59.736;30.568;2022-10-03T19:08:10;99438.00;;;7.60
73937;BMP180;59249;59.736;30.568;2022-10-03T19:10:50;99426.00;;;7.40
73937;BMP180;59249;59.736;30.568;2022-10-03T19:13:27;99431.00;;;7.60
73937;BMP180;59249;59.736;30.568;2022-10-03T19:16:26;99436.00;;;7.50
73937;BMP180;59249;59.736;30.568;2022-10-03T19:19:13;99426.00;;;7.60
73937;BMP180;59249;59.736;30.568;2022-10-03T19:21:50;99426.00;;;7.70
73937;BMP180;59249;59.736;30.568;2022-10-03T19:24:23;99425.00;;;7.50